Time;durP1;ratioP1;P1;durP2;ratioP2;P2;SDS_P1;SDS_P2;PMS_P1;PMS_P2;Temp;Humidity;BMP_temperature;BMP_pressure;BME280_temperature;BME280_humidity;BME280_pressure;Samples;Min_cycle;Max_cycle;Signal;HPM_P1;HPM_P2
2023/07/05 00:01:25;;;;;;;0.10;0.10;;;;;;;;;;5083032;28;20256;-71
2023/07/05 00:03:51;;;;;;;0.10;0.10;;;;;;;;;;5089721;28;20264;-71
2023/07/05 00:06:19;;;;;;;0.00;0.00;;;;;;;;;;5082736;28;20435;-71
2023/07/05 00:08:45;;;;;;;0.05;0.05;;;;;;;;;;5090245;28;20237;-71
2023/07/05 00:11:12;;;;;;;0.10;0.10;;;;;;;;;;5081875;28;20300;-71
2023/07/05 00:13:38;;;;;;;0.03;0.03;;;;;;;;;;5090854;28;20229;-71
2023/07/05 00:16:05;;;;;;;0.10;0.10;;;;;;;;;;5080745;28;20240;-71
2023/07/05 00:18:31;;;;;;;0.00;0.00;;;;;;;;;;5091863;28;20435;-71
2023/07/05 00:20:59;;;;;;;0.10;0.10;;;;;;;;;;5079714;28;20267;-72
2023/07/05 00:23:27;;;;;;;0.10;0.10;;;;;;;;;;5092420;28;20236;-72
2023/07/05 00:25:53;;;;;;;0.10;0.10;;;;;;;;;;5079134;28;20293;-72
2023/07/05 00:28:20;;;;;;;0.00;0.00;;;;;;;;;;5093177;28;20210;-72
2023/07/05 00:30:47;;;;;;;0.08;0.08;;;;;;;;;;5077534;28;20242;-72
2023/07/05 00:33:13;;;;;;;0.10;0.10;;;;;;;;;;5094061;28;20235;-72
2023/07/05 00:35:46;;;;;;;0.10;0.10;;;;;;;;;;5077327;28;20315;-72
2023/07/05 00:38:12;;;;;;;0.10;0.10;;;;;;;;;;5094049;28;20235;-72
2023/07/05 00:40:40;;;;;;;0.10;0.10;;;;;;;;;;5077132;28;20239;-72
2023/07/05 00:43:06;;;;;;;0.20;0.20;;;;;;;;;;5094862;28;20239;-72
2023/07/05 00:45:53;;;;;;;0.00;0.00;;;;;;;;;;5076160;28;20306;-72
2023/07/05 00:48:22;;;;;;;0.20;0.20;;;;;;;;;;5093089;28;20204;-72
2023/07/05 00:50:49;;;;;;;0.10;0.10;;;;;;;;;;5078478;28;20303;-72
2023/07/05 00:53:16;;;;;;;0.03;0.03;;;;;;;;;;5093495;28;20236;-72
2023/07/05 00:55:46;;;;;;;0.10;0.10;;;;;;;;;;5077422;28;20246;-71
2023/07/05 00:58:13;;;;;;;0.10;0.10;;;;;;;;;;5093671;28;20203;-72
2023/07/05 01:00:39;;;;;;;0.08;0.08;;;;;;;;;;5076886;28;20288;-72
2023/07/05 01:03:10;;;;;;;0.05;0.05;;;;;;;;;;5094699;28;20266;-72
2023/07/05 01:05:36;;;;;;;0.10;0.10;;;;;;;;;;5076342;28;20274;-72
2023/07/05 01:08:04;;;;;;;0.03;0.03;;;;;;;;;;5094893;28;20211;-72
2023/07/05 01:10:30;;;;;;;0.00;0.00;;;;;;;;;;5075653;28;20250;-71
2023/07/05 01:13:02;;;;;;;0.10;0.10;;;;;;;;;;5095850;28;20237;-72
2023/07/05 01:15:32;;;;;;;0.10;0.10;;;;;;;;;;5075479;28;21264;-72
2023/07/05 01:18:03;;;;;;;0.10;0.10;;;;;;;;;;5095568;28;20212;-72
2023/07/05 01:20:33;;;;;;;0.52;0.52;;;;;;;;;;5075732;28;20247;-72
2023/07/05 01:23:11;;;;;;;0.85;0.85;;;;;;;;;;5095190;28;20196;-72
2023/07/05 01:25:46;;;;;;;0.10;0.10;;;;;;;;;;5076743;28;20512;-72
2023/07/05 01:28:36;;;;;;;0.00;0.00;;;;;;;;;;5093724;28;20256;-72
2023/07/05 01:31:11;;;;;;;0.10;0.10;;;;;;;;;;5079922;28;20243;-72
2023/07/05 01:33:43;;;;;;;0.10;0.10;;;;;;;;;;5090442;28;20267;-71
2023/07/05 01:36:12;;;;;;;0.10;0.10;;;;;;;;;;5080646;28;20248;-72
2023/07/05 01:38:38;;;;;;;0.00;0.00;;;;;;;;;;5090123;28;20273;-72
2023/07/05 01:41:07;;;;;;;0.10;0.10;;;;;;;;;;5079992;28;20243;-72
2023/07/05 01:43:35;;;;;;;0.10;0.10;;;;;;;;;;5093770;28;20209;-72
2023/07/05 01:46:19;;;;;;;0.10;0.10;;;;;;;;;;5082752;28;20249;-72
2023/07/05 01:48:56;;;;;;;0.10;0.10;;;;;;;;;;5092692;28;20394;-71
2023/07/05 01:51:27;;;;;;;0.05;0.05;;;;;;;;;;5085852;28;20239;-72
2023/07/05 01:54:00;;;;;;;0.13;0.13;;;;;;;;;;5091534;28;20204;-71
2023/07/05 01:56:42;;;;;;;0.05;0.05;;;;;;;;;;5086368;28;20454;-71
2023/07/05 01:59:09;;;;;;;0.00;0.00;;;;;;;;;;5089706;28;20191;-72
2023/07/05 02:01:36;;;;;;;0.10;0.10;;;;;;;;;;5087041;28;20313;-72
2023/07/05 02:04:06;;;;;;;0.08;0.08;;;;;;;;;;5089996;28;20225;-76
2023/07/05 02:06:33;;;;;;;0.10;0.10;;;;;;;;;;5086798;28;20461;-76
2023/07/05 02:09:00;;;;;;;0.00;0.00;;;;;;;;;;5090461;28;20401;-76
2023/07/05 02:11:26;;;;;;;0.10;0.10;;;;;;;;;;5085900;28;20482;-75
2023/07/05 02:13:52;;;;;;;0.10;0.10;;;;;;;;;;5091406;28;20243;-75
2023/07/05 02:16:19;;;;;;;0.43;0.43;;;;;;;;;;5084681;28;20252;-76
2023/07/05 02:18:45;;;;;;;0.00;0.00;;;;;;;;;;5092178;28;20204;-75
2023/07/05 02:21:13;;;;;;;0.00;0.00;;;;;;;;;;5083365;28;20239;-75
2023/07/05 02:23:39;;;;;;;0.10;0.10;;;;;;;;;;5093269;28;20279;-75
2023/07/05 02:26:06;;;;;;;0.03;0.03;;;;;;;;;;5082917;28;20489;-75
2023/07/05 02:28:33;;;;;;;0.50;0.50;;;;;;;;;;5093367;28;20405;-76
2023/07/05 02:31:03;;;;;;;0.00;0.00;;;;;;;;;;5081867;28;20266;-75
2023/07/05 02:33:30;;;;;;;0.03;0.03;;;;;;;;;;5093820;28;20244;-75
2023/07/05 02:35:56;;;;;;;0.10;0.10;;;;;;;;;;5081336;28;20318;-75
2023/07/05 02:38:24;;;;;;;0.00;0.00;;;;;;;;;;5094741;28;20271;-75
2023/07/05 02:40:50;;;;;;;0.10;0.10;;;;;;;;;;5080653;28;20447;-76
2023/07/05 02:43:16;;;;;;;0.00;0.00;;;;;;;;;;5095143;28;20211;-76
2023/07/05 02:45:43;;;;;;;0.10;0.10;;;;;;;;;;5079432;28;20262;-76
2023/07/05 02:48:09;;;;;;;0.10;0.10;;;;;;;;;;5096388;28;20553;-75
2023/07/05 02:50:38;;;;;;;0.03;0.03;;;;;;;;;;5078660;28;20446;-75
2023/07/05 02:53:04;;;;;;;0.10;0.10;;;;;;;;;;5096237;28;20271;-76
2023/07/05 02:55:32;;;;;;;0.00;0.00;;;;;;;;;;5077711;28;20255;-76
2023/07/05 02:57:59;;;;;;;0.00;0.00;;;;;;;;;;5097672;28;20207;-75
2023/07/05 03:00:29;;;;;;;0.05;0.05;;;;;;;;;;5076740;28;20269;-75
2023/07/05 03:02:55;;;;;;;6.28;1.50;;;;;;;;;;5097861;28;20560;-75
2023/07/05 03:05:22;;;;;;;0.10;0.10;;;;;;;;;;5076057;28;20235;-76
2023/07/05 03:07:48;;;;;;;0.10;0.10;;;;;;;;;;5098614;28;20280;-75
2023/07/05 03:10:14;;;;;;;0.05;0.05;;;;;;;;;;5075176;28;20247;-75
2023/07/05 03:12:42;;;;;;;0.10;0.10;;;;;;;;;;5099604;28;20272;-75
2023/07/05 03:15:09;;;;;;;0.50;0.50;;;;;;;;;;5074775;28;20232;-75
2023/07/05 03:17:35;;;;;;;0.00;0.00;;;;;;;;;;5100101;28;20233;-75
2023/07/05 03:20:02;;;;;;;0.05;0.05;;;;;;;;;;5084316;28;20208;-76
2023/07/05 03:22:28;;;;;;;1.65;1.55;;;;;;;;;;5090021;28;20240;-75
2023/07/05 03:24:55;;;;;;;0.10;0.10;;;;;;;;;;5084280;28;20254;-75
2023/07/05 03:27:21;;;;;;;0.40;0.40;;;;;;;;;;5089928;28;20430;-76
2023/07/05 03:29:51;;;;;;;0.03;0.03;;;;;;;;;;5084548;28;20396;-75
2023/07/05 03:32:17;;;;;;;0.10;0.10;;;;;;;;;;5089748;28;20631;-75
2023/07/05 03:34:44;;;;;;;0.00;0.00;;;;;;;;;;5084498;28;20450;-75
2023/07/05 03:37:10;;;;;;;0.00;0.00;;;;;;;;;;5089680;28;20485;-75
2023/07/05 03:39:36;;;;;;;0.00;0.00;;;;;;;;;;5084492;28;20227;-75
2023/07/05 03:42:03;;;;;;;0.10;0.10;;;;;;;;;;5088927;28;20335;-76
2023/07/05 03:44:29;;;;;;;0.00;0.00;;;;;;;;;;5084900;28;20235;-75
2023/07/05 03:46:57;;;;;;;0.03;0.03;;;;;;;;;;5087773;28;20257;-75
2023/07/05 03:49:23;;;;;;;0.03;0.03;;;;;;;;;;5085636;28;20206;-76
2023/07/05 03:51:50;;;;;;;0.00;0.00;;;;;;;;;;5086928;28;20311;-75
2023/07/05 03:54:16;;;;;;;0.38;0.38;;;;;;;;;;5086102;28;20208;-75
2023/07/05 03:56:43;;;;;;;0.10;0.10;;;;;;;;;;5085760;28;20307;-76
2023/07/05 03:59:10;;;;;;;0.10;0.10;;;;;;;;;;5087198;28;20535;-75
2023/07/05 04:01:36;;;;;;;0.10;0.10;;;;;;;;;;5084845;28;20262;-75
2023/07/05 04:04:04;;;;;;;0.00;0.00;;;;;;;;;;5087368;28;20220;-75
2023/07/05 04:06:32;;;;;;;0.10;0.10;;;;;;;;;;5083621;28;20240;-75
2023/07/05 04:08:58;;;;;;;0.00;0.00;;;;;;;;;;5088435;28;20232;-75
2023/07/05 04:11:24;;;;;;;0.00;0.00;;;;;;;;;;5083527;28;20252;-75
2023/07/05 04:13:51;;;;;;;0.00;0.00;;;;;;;;;;5089452;28;20273;-75
2023/07/05 04:16:19;;;;;;;0.10;0.10;;;;;;;;;;5082588;28;20260;-74
2023/07/05 04:18:46;;;;;;;0.50;0.50;;;;;;;;;;5090064;28;20333;-75
2023/07/05 04:21:14;;;;;;;0.00;0.00;;;;;;;;;;5081780;28;20568;-75
2023/07/05 04:23:41;;;;;;;0.10;0.10;;;;;;;;;;5090907;28;20286;-76
2023/07/05 04:26:08;;;;;;;0.10;0.10;;;;;;;;;;5080822;28;20240;-75
2023/07/05 04:28:35;;;;;;;0.03;0.03;;;;;;;;;;5091385;28;20227;-75
2023/07/05 04:31:01;;;;;;;0.35;0.35;;;;;;;;;;5080310;28;20570;-75
2023/07/05 04:33:28;;;;;;;0.10;0.10;;;;;;;;;;5092213;28;20268;-75
2023/07/05 04:35:55;;;;;;;0.10;0.10;;;;;;;;;;5079223;28;20692;-74
2023/07/05 04:38:23;;;;;;;0.00;0.00;;;;;;;;;;5092785;28;20250;-74
2023/07/05 04:40:49;;;;;;;0.30;0.30;;;;;;;;;;5078790;28;20483;-76
2023/07/05 04:43:16;;;;;;;0.10;0.10;;;;;;;;;;5093573;28;20268;-75
2023/07/05 04:45:48;;;;;;;2.55;1.95;;;;;;;;;;5077741;28;20438;-74
2023/07/05 04:48:14;;;;;;;0.10;0.10;;;;;;;;;;5093763;28;20536;-74
2023/07/05 04:50:41;;;;;;;4.65;0.85;;;;;;;;;;5077625;28;20476;-74
2023/07/05 04:53:07;;;;;;;0.00;0.00;;;;;;;;;;5094680;28;20450;-75
2023/07/05 04:55:35;;;;;;;0.00;0.00;;;;;;;;;;5076539;28;20253;-74
2023/07/05 04:58:03;;;;;;;0.00;0.00;;;;;;;;;;5095393;28;20271;-76
2023/07/05 05:00:29;;;;;;;0.10;0.10;;;;;;;;;;5075597;28;20257;-74
2023/07/05 05:02:56;;;;;;;0.10;0.10;;;;;;;;;;5095983;28;20239;-74
2023/07/05 05:05:22;;;;;;;0.03;0.03;;;;;;;;;;5074623;28;20410;-74
2023/07/05 05:07:49;;;;;;;0.05;0.05;;;;;;;;;;5096908;28;20444;-75
2023/07/05 05:10:15;;;;;;;0.25;0.25;;;;;;;;;;5074052;28;20204;-74
2023/07/05 05:12:43;;;;;;;0.03;0.03;;;;;;;;;;5097687;28;20243;-74
2023/07/05 05:15:10;;;;;;;0.00;0.00;;;;;;;;;;5073291;28;20475;-74
2023/07/05 05:17:36;;;;;;;1.58;1.48;;;;;;;;;;5101580;28;20209;-74
2023/07/05 05:20:04;;;;;;;1.65;1.20;;;;;;;;;;5086779;28;20234;-74
2023/07/05 05:22:30;;;;;;;0.10;0.10;;;;;;;;;;5092357;28;20249;-76
2023/07/05 05:24:57;;;;;;;0.00;0.00;;;;;;;;;;5087058;28;20212;-75
2023/07/05 05:27:23;;;;;;;0.25;0.25;;;;;;;;;;5092091;28;20251;-75
2023/07/05 05:29:51;;;;;;;0.40;0.40;;;;;;;;;;5086617;28;20275;-75
2023/07/05 05:32:17;;;;;;;1.63;1.60;;;;;;;;;;5092066;28;20307;-75
2023/07/05 05:34:44;;;;;;;0.00;0.00;;;;;;;;;;5086852;28;20232;-75
2023/07/05 05:37:10;;;;;;;1.00;1.00;;;;;;;;;;5092033;28;20326;-74
2023/07/05 05:39:36;;;;;;;0.15;0.15;;;;;;;;;;5086751;28;20227;-74
2023/07/05 05:42:03;;;;;;;0.00;0.00;;;;;;;;;;5091414;28;20251;-75
2023/07/05 05:44:29;;;;;;;0.00;0.00;;;;;;;;;;5087148;28;20243;-75
2023/07/05 05:46:57;;;;;;;0.05;0.05;;;;;;;;;;5090164;28;20251;-75
2023/07/05 05:49:23;;;;;;;5.03;3.58;;;;;;;;;;5087555;28;20273;-75
2023/07/05 05:51:50;;;;;;;0.03;0.03;;;;;;;;;;5089276;28;20302;-74
2023/07/05 05:54:16;;;;;;;0.10;0.10;;;;;;;;;;5088350;28;20261;-75
2023/07/05 05:56:42;;;;;;;0.10;0.10;;;;;;;;;;5088367;28;20252;-74
2023/07/05 05:59:09;;;;;;;0.00;0.00;;;;;;;;;;5089249;28;20277;-74
2023/07/05 06:01:35;;;;;;;0.00;0.00;;;;;;;;;;5086896;28;20303;-74
2023/07/05 06:04:03;;;;;;;0.30;0.30;;;;;;;;;;5090625;28;20618;-74
2023/07/05 06:06:29;;;;;;;0.10;0.10;;;;;;;;;;5086383;28;20257;-74
2023/07/05 06:08:56;;;;;;;0.20;0.20;;;;;;;;;;5091075;28;20236;-75
2023/07/05 06:11:22;;;;;;;0.00;0.00;;;;;;;;;;5085304;28;20257;-75
2023/07/05 06:13:48;;;;;;;0.10;0.10;;;;;;;;;;5091885;28;20277;-75
2023/07/05 06:16:15;;;;;;;0.10;0.10;;;;;;;;;;5084482;28;20255;-74
2023/07/05 06:18:42;;;;;;;0.00;0.00;;;;;;;;;;5092713;28;20243;-77
2023/07/05 06:21:11;;;;;;;0.10;0.10;;;;;;;;;;5083595;28;20316;-74
2023/07/05 06:23:38;;;;;;;0.10;0.10;;;;;;;;;;5093147;28;20214;-74
2023/07/05 06:26:04;;;;;;;0.00;0.00;;;;;;;;;;5082722;28;20616;-75
2023/07/05 06:28:31;;;;;;;0.40;0.40;;;;;;;;;;5093102;28;20450;-74
2023/07/05 06:30:57;;;;;;;0.40;0.40;;;;;;;;;;5081741;28;20303;-74
2023/07/05 06:33:23;;;;;;;0.15;0.15;;;;;;;;;;5094703;28;20239;-75
2023/07/05 06:35:50;;;;;;;0.30;0.30;;;;;;;;;;5080704;28;20245;-75
2023/07/05 06:38:18;;;;;;;1.55;1.45;;;;;;;;;;5096271;28;20244;-75
2023/07/05 06:40:50;;;;;;;0.05;0.05;;;;;;;;;;5080766;28;20253;-75
2023/07/05 06:43:17;;;;;;;0.05;0.05;;;;;;;;;;5095436;28;20461;-73
2023/07/05 06:45:46;;;;;;;0.00;0.00;;;;;;;;;;5079794;28;20568;-74
2023/07/05 06:48:13;;;;;;;1.10;1.00;;;;;;;;;;5095860;28;20237;-76
2023/07/05 06:50:40;;;;;;;0.00;0.00;;;;;;;;;;5079145;28;20241;-73
2023/07/05 06:53:06;;;;;;;0.10;0.10;;;;;;;;;;5096777;28;20204;-76
2023/07/05 06:55:34;;;;;;;0.05;0.05;;;;;;;;;;5078339;28;20304;-76
2023/07/05 06:58:00;;;;;;;0.17;0.17;;;;;;;;;;5097412;28;20236;-75
2023/07/05 07:00:27;;;;;;;0.00;0.00;;;;;;;;;;5077108;28;20267;-73
2023/07/05 07:02:53;;;;;;;1.75;1.65;;;;;;;;;;5098670;28;20312;-75
2023/07/05 07:05:19;;;;;;;9.65;1.08;;;;;;;;;;5076145;28;20251;-75
2023/07/05 07:07:46;;;;;;;1.77;1.70;;;;;;;;;;5099145;28;20293;-75
2023/07/05 07:10:12;;;;;;;0.13;0.10;;;;;;;;;;5075237;28;20206;-77
2023/07/05 07:12:40;;;;;;;0.52;0.52;;;;;;;;;;5100010;28;20275;-74
2023/07/05 07:15:06;;;;;;;0.55;0.55;;;;;;;;;;5084555;28;20232;-74
2023/07/05 07:17:33;;;;;;;0.00;0.00;;;;;;;;;;5073172;28;20277;-74
2023/07/05 07:19:59;;;;;;;0.22;0.22;;;;;;;;;;5084624;28;20228;-75
2023/07/05 07:22:25;;;;;;;0.00;0.00;;;;;;;;;;5090140;28;20247;-74
2023/07/05 07:24:52;;;;;;;0.38;0.38;;;;;;;;;;5084419;28;20213;-74
2023/07/05 07:27:18;;;;;;;0.00;0.00;;;;;;;;;;5089961;28;20236;-74
2023/07/05 07:29:46;;;;;;;0.05;0.05;;;;;;;;;;5084316;28;20205;-74
2023/07/05 07:32:13;;;;;;;0.00;0.00;;;;;;;;;;5089762;28;20236;-74
2023/07/05 07:34:40;;;;;;;0.98;0.95;;;;;;;;;;5084540;28;20239;-74
2023/07/05 07:37:06;;;;;;;0.10;0.10;;;;;;;;;;5089441;28;20341;-75
2023/07/05 07:39:33;;;;;;;0.03;0.03;;;;;;;;;;5084190;28;20207;-75
2023/07/05 07:42:00;;;;;;;0.00;0.00;;;;;;;;;;5088352;28;20247;-74
2023/07/05 07:44:27;;;;;;;0.10;0.10;;;;;;;;;;5085005;28;20458;-74
2023/07/05 07:46:55;;;;;;;0.00;0.00;;;;;;;;;;5087236;28;20236;-74
2023/07/05 07:49:21;;;;;;;0.08;0.08;;;;;;;;;;5085832;28;20205;-74
2023/07/05 07:51:48;;;;;;;0.10;0.10;;;;;;;;;;5086733;28;20307;-74
2023/07/05 07:54:18;;;;;;;0.00;0.00;;;;;;;;;;5086761;28;20205;-74
2023/07/05 07:56:45;;;;;;;0.00;0.00;;;;;;;;;;5086368;28;20505;-74
2023/07/05 07:59:12;;;;;;;0.00;0.00;;;;;;;;;;5086706;28;20209;-73
2023/07/05 08:01:39;;;;;;;0.10;0.10;;;;;;;;;;5084837;28;20454;-74
2023/07/05 08:04:07;;;;;;;0.10;0.10;;;;;;;;;;5087956;28;20236;-74
2023/07/05 08:06:36;;;;;;;0.10;0.10;;;;;;;;;;5084477;28;20248;-74
2023/07/05 08:09:05;;;;;;;0.35;0.35;;;;;;;;;;5088016;28;20259;-75
2023/07/05 08:11:32;;;;;;;0.03;0.03;;;;;;;;;;5084397;28;20247;-74
2023/07/05 08:13:58;;;;;;;0.00;0.00;;;;;;;;;;5088174;28;20218;-74
2023/07/05 08:16:24;;;;;;;0.00;0.00;;;;;;;;;;5083461;28;20263;-74
2023/07/05 08:18:51;;;;;;;0.08;0.08;;;;;;;;;;5089392;28;20276;-74
2023/07/05 08:21:19;;;;;;;0.10;0.10;;;;;;;;;;5082579;28;20245;-74
2023/07/05 08:23:45;;;;;;;5.30;5.00;;;;;;;;;;5090138;28;20240;-74
2023/07/05 08:26:12;;;;;;;0.00;0.00;;;;;;;;;;5081521;28;20254;-74
2023/07/05 08:28:38;;;;;;;0.10;0.10;;;;;;;;;;5090679;28;20271;-74
2023/07/05 08:31:05;;;;;;;0.10;0.10;;;;;;;;;;5080424;28;20307;-74
2023/07/05 08:33:32;;;;;;;0.10;0.10;;;;;;;;;;5091669;28;20287;-74
2023/07/05 08:36:07;;;;;;;0.00;0.00;;;;;;;;;;5079613;28;20243;-74
2023/07/05 08:38:34;;;;;;;0.00;0.00;;;;;;;;;;5091544;28;20268;-75
2023/07/05 08:41:05;;;;;;;0.00;0.00;;;;;;;;;;5079904;28;20306;-74
2023/07/05 08:43:35;;;;;;;0.40;0.40;;;;;;;;;;5091630;28;20206;-75
2023/07/05 08:46:04;;;;;;;0.10;0.10;;;;;;;;;;5080204;28;20518;-74
2023/07/05 08:48:32;;;;;;;0.00;0.00;;;;;;;;;;5091733;28;20259;-74
2023/07/05 08:50:59;;;;;;;0.00;0.00;;;;;;;;;;5080047;28;20244;-75
2023/07/05 08:53:25;;;;;;;0.00;0.00;;;;;;;;;;5096522;28;20206;-75
2023/07/05 08:55:55;;;;;;;0.10;0.10;;;;;;;;;;5082920;28;20304;-75
2023/07/05 08:58:23;;;;;;;0.00;0.00;;;;;;;;;;5097038;28;20280;-75
2023/07/05 09:00:52;;;;;;;0.08;0.08;;;;;;;;;;5081872;28;20249;-74
2023/07/05 09:03:20;;;;;;;0.00;0.00;;;;;;;;;;5097583;28;20282;-75
2023/07/05 09:05:49;;;;;;;0.00;0.00;;;;;;;;;;5081800;28;20268;-75
2023/07/05 09:08:21;;;;;;;2.00;1.95;;;;;;;;;;5097595;28;20267;-75
2023/07/05 09:10:54;;;;;;;0.00;0.00;;;;;;;;;;5082098;28;20255;-75
2023/07/05 09:13:26;;;;;;;0.10;0.10;;;;;;;;;;5096948;28;20205;-75
2023/07/05 09:15:56;;;;;;;0.00;0.00;;;;;;;;;;5082517;28;20255;-74
2023/07/05 09:18:28;;;;;;;0.00;0.00;;;;;;;;;;5096661;28;20281;-75
2023/07/05 09:21:11;;;;;;;0.00;0.00;;;;;;;;;;5082773;28;20246;-75
2023/07/05 09:23:40;;;;;;;0.00;0.00;;;;;;;;;;5094466;28;20231;-75
2023/07/05 09:26:11;;;;;;;0.00;0.00;;;;;;;;;;5083976;28;20266;-75
2023/07/05 09:28:42;;;;;;;0.00;0.00;;;;;;;;;;5094302;28;20233;-75
2023/07/05 09:31:10;;;;;;;0.00;0.00;;;;;;;;;;5084477;28;20449;-76
2023/07/05 09:33:39;;;;;;;0.00;0.00;;;;;;;;;;5094304;28;20277;-75
2023/07/05 09:36:10;;;;;;;0.45;0.45;;;;;;;;;;5083927;28;20493;-75
2023/07/05 09:38:39;;;;;;;0.00;0.00;;;;;;;;;;5094136;28;20240;-76
2023/07/05 09:41:08;;;;;;;0.00;0.00;;;;;;;;;;5083912;28;20265;-76
2023/07/05 09:43:35;;;;;;;0.00;0.00;;;;;;;;;;5094101;28;20273;-75
2023/07/05 09:46:04;;;;;;;0.00;0.00;;;;;;;;;;5082954;28;20306;-75
2023/07/05 09:48:31;;;;;;;0.00;0.00;;;;;;;;;;5094731;28;20297;-75
2023/07/05 09:51:03;;;;;;;0.00;0.00;;;;;;;;;;5082575;28;20288;-76
2023/07/05 09:53:38;;;;;;;0.38;0.38;;;;;;;;;;5094768;28;20237;-75
2023/07/05 09:56:07;;;;;;;0.10;0.10;;;;;;;;;;5083510;28;20303;-75
2023/07/05 09:58:34;;;;;;;0.10;0.10;;;;;;;;;;5094231;28;20229;-74
2023/07/05 10:01:04;;;;;;;0.00;0.00;;;;;;;;;;5082568;28;20253;-74
2023/07/05 10:03:35;;;;;;;0.00;0.00;;;;;;;;;;5093347;28;20245;-76
2023/07/05 10:06:07;;;;;;;0.00;0.00;;;;;;;;;;5082800;28;20300;-75
2023/07/05 10:08:34;;;;;;;0.00;0.00;;;;;;;;;;5093972;28;20257;-75
2023/07/05 10:11:03;;;;;;;0.00;0.00;;;;;;;;;;5082458;28;20246;-75
2023/07/05 10:13:31;;;;;;;0.00;0.00;;;;;;;;;;5094507;28;20282;-75
2023/07/05 10:16:01;;;;;;;0.00;0.00;;;;;;;;;;5082020;28;20246;-75
2023/07/05 10:18:28;;;;;;;0.30;0.30;;;;;;;;;;5094574;28;20222;-76
2023/07/05 10:20:58;;;;;;;0.05;0.05;;;;;;;;;;5081637;28;20302;-74
2023/07/05 10:23:26;;;;;;;0.00;0.00;;;;;;;;;;5095023;28;20284;-75
2023/07/05 10:25:52;;;;;;;0.00;0.00;;;;;;;;;;5081365;28;20240;-75
2023/07/05 10:28:21;;;;;;;62.28;9.75;;;;;;;;;;5095442;28;20453;-75
2023/07/05 10:30:49;;;;;;;0.85;0.82;;;;;;;;;;5080781;28;20489;-74
2023/07/05 10:33:17;;;;;;;0.20;0.20;;;;;;;;;;5095853;28;20278;-75
2023/07/05 10:35:47;;;;;;;0.38;0.38;;;;;;;;;;5079668;28;20303;-75
2023/07/05 10:38:25;;;;;;;0.00;0.00;;;;;;;;;;5096026;28;20370;-76
2023/07/05 10:40:52;;;;;;;0.00;0.00;;;;;;;;;;5080940;28;20565;-75
2023/07/05 10:43:18;;;;;;;0.03;0.03;;;;;;;;;;5095291;28;20213;-75
2023/07/05 10:45:45;;;;;;;0.00;0.00;;;;;;;;;;5080103;28;20299;-74
2023/07/05 10:48:20;;;;;;;0.00;0.00;;;;;;;;;;5096046;28;20226;-75
2023/07/05 10:50:47;;;;;;;0.10;0.10;;;;;;;;;;5079961;28;20240;-75
2023/07/05 10:53:14;;;;;;;0.00;0.00;;;;;;;;;;5095761;28;20212;-75
2023/07/05 10:55:44;;;;;;;0.10;0.10;;;;;;;;;;5078952;28;20284;-75
2023/07/05 10:58:14;;;;;;;0.00;0.00;;;;;;;;;;5096279;28;20438;-75
2023/07/05 11:00:43;;;;;;;0.00;0.00;;;;;;;;;;5079016;28;20485;-75
2023/07/05 11:03:11;;;;;;;0.00;0.00;;;;;;;;;;5095830;28;20207;-75
2023/07/05 11:05:40;;;;;;;0.00;0.00;;;;;;;;;;5078519;28;20248;-76
2023/07/05 11:08:15;;;;;;;0.00;0.00;;;;;;;;;;5096238;28;20298;-75
2023/07/05 11:10:43;;;;;;;0.22;0.22;;;;;;;;;;5079121;28;20241;-75
2023/07/05 11:13:13;;;;;;;0.08;0.08;;;;;;;;;;5095681;28;20260;-76
2023/07/05 11:15:39;;;;;;;0.00;0.00;;;;;;;;;;5078401;28;20480;-75
2023/07/05 11:18:07;;;;;;;0.00;0.00;;;;;;;;;;5096215;28;20270;-76
2023/07/05 11:20:43;;;;;;;0.00;0.00;;;;;;;;;;5077871;28;20443;-75
2023/07/05 11:23:10;;;;;;;0.00;0.00;;;;;;;;;;5095825;28;20233;-75
2023/07/05 11:26:06;;;;;;;0.08;0.08;;;;;;;;;;5078111;28;20597;-74
2023/07/05 11:28:35;;;;;;;0.00;0.00;;;;;;;;;;5022819;28;20316;-76
2023/07/05 11:31:02;;;;;;;0.00;0.00;;;;;;;;;;5067288;28;20513;-74
2023/07/05 11:33:28;;;;;;;0.08;0.08;;;;;;;;;;5093095;28;20275;-74
2023/07/05 11:35:55;;;;;;;0.00;0.00;;;;;;;;;;5080258;28;20582;-75
2023/07/05 11:38:46;;;;;;;0.00;0.00;;;;;;;;;;5093904;28;20390;-74
2023/07/05 11:41:26;;;;;;;0.10;0.10;;;;;;;;;;5081776;28;20313;-75
2023/07/05 11:43:56;;;;;;;0.10;0.10;;;;;;;;;;5090042;28;20235;-76
2023/07/05 11:46:39;;;;;;;0.00;0.00;;;;;;;;;;5083876;28;20405;-75
2023/07/05 11:49:16;;;;;;;0.00;0.00;;;;;;;;;;5087674;28;20253;-74
2023/07/05 11:51:42;;;;;;;0.00;0.00;;;;;;;;;;5085923;28;20241;-74
2023/07/05 11:54:09;;;;;;;0.00;0.00;;;;;;;;;;5087584;28;20270;-74
2023/07/05 11:56:37;;;;;;;0.00;0.00;;;;;;;;;;5085169;28;20242;-73
2023/07/05 11:59:06;;;;;;;0.00;0.00;;;;;;;;;;5088119;28;20458;-75
2023/07/05 12:01:34;;;;;;;0.00;0.00;;;;;;;;;;5084000;28;20495;-74
2023/07/05 12:04:02;;;;;;;0.00;0.00;;;;;;;;;;5088749;28;20281;-75
2023/07/05 12:06:35;;;;;;;0.00;0.00;;;;;;;;;;5084177;28;20451;-74
2023/07/05 12:09:03;;;;;;;0.00;0.00;;;;;;;;;;5088153;28;20265;-75
2023/07/05 12:11:30;;;;;;;0.10;0.10;;;;;;;;;;5084065;28;20238;-75
2023/07/05 12:14:00;;;;;;;1.08;0.28;;;;;;;;;;5088591;28;20282;-74
2023/07/05 12:16:29;;;;;;;4.50;4.20;;;;;;;;;;5083785;28;20301;-75
2023/07/05 12:18:55;;;;;;;0.00;0.00;;;;;;;;;;5088915;28;20213;-74
2023/07/05 12:21:22;;;;;;;0.00;0.00;;;;;;;;;;5083158;28;20402;-76
2023/07/05 12:23:50;;;;;;;0.13;0.13;;;;;;;;;;5089751;28;20231;-76
2023/07/05 12:26:19;;;;;;;0.00;0.00;;;;;;;;;;5081580;28;20238;-74
2023/07/05 12:28:47;;;;;;;0.10;0.10;;;;;;;;;;5089485;28;20223;-75
2023/07/05 12:31:13;;;;;;;0.10;0.10;;;;;;;;;;5081862;28;20588;-75
2023/07/05 12:33:41;;;;;;;0.10;0.10;;;;;;;;;;5090753;28;20274;-75
2023/07/05 12:36:09;;;;;;;0.00;0.00;;;;;;;;;;5081105;28;20239;-75
2023/07/05 12:38:35;;;;;;;0.00;0.00;;;;;;;;;;5091311;28;20199;-75
2023/07/05 12:41:02;;;;;;;0.00;0.00;;;;;;;;;;5080040;28;20313;-74
2023/07/05 12:43:29;;;;;;;0.00;0.00;;;;;;;;;;5091982;28;20540;-74
2023/07/05 12:46:06;;;;;;;0.00;0.00;;;;;;;;;;5079429;28;20304;-75
2023/07/05 12:48:32;;;;;;;0.68;0.68;;;;;;;;;;5091592;28;20233;-76
2023/07/05 12:51:04;;;;;;;0.10;0.10;;;;;;;;;;5079794;28;20280;-76
2023/07/05 12:53:30;;;;;;;0.00;0.00;;;;;;;;;;5091957;28;20453;-76
2023/07/05 12:55:59;;;;;;;0.10;0.10;;;;;;;;;;5079637;28;20242;-76
2023/07/05 12:58:27;;;;;;;0.00;0.00;;;;;;;;;;5092369;28;20271;-76
2023/07/05 13:00:56;;;;;;;0.57;0.57;;;;;;;;;;5078827;28;20319;-77
2023/07/05 13:03:24;;;;;;;0.00;0.00;;;;;;;;;;5092896;28;20294;-78
2023/07/05 13:05:51;;;;;;;0.00;0.00;;;;;;;;;;5078268;28;20238;-76
2023/07/05 13:08:18;;;;;;;0.00;0.00;;;;;;;;;;5093333;28;20227;-77
2023/07/05 13:10:45;;;;;;;0.00;0.00;;;;;;;;;;5077849;28;20474;-77
2023/07/05 13:13:23;;;;;;;0.68;0.68;;;;;;;;;;5093956;28;20239;-77
2023/07/05 13:15:51;;;;;;;0.00;0.00;;;;;;;;;;5078498;28;20436;-77
2023/07/05 13:18:28;;;;;;;0.10;0.10;;;;;;;;;;5093182;28;20222;-77
2023/07/05 13:21:07;;;;;;;0.10;0.10;;;;;;;;;;5078959;28;20261;-77
2023/07/05 13:23:35;;;;;;;0.10;0.10;;;;;;;;;;5090799;28;20469;-77
2023/07/05 13:26:01;;;;;;;0.00;0.00;;;;;;;;;;5079514;28;20597;-77
2023/07/05 13:28:32;;;;;;;0.10;0.05;;;;;;;;;;5091677;28;20412;-77
2023/07/05 13:31:00;;;;;;;0.30;0.30;;;;;;;;;;5079420;28;20302;-77
2023/07/05 13:33:27;;;;;;;0.00;0.00;;;;;;;;;;5091664;28;20204;-77
2023/07/05 13:35:53;;;;;;;0.00;0.00;;;;;;;;;;5078783;28;20306;-78
2023/07/05 13:38:20;;;;;;;0.10;0.10;;;;;;;;;;5095289;28;20196;-77
2023/07/05 13:40:53;;;;;;;0.00;0.00;;;;;;;;;;5081144;28;20239;-77
2023/07/05 13:43:19;;;;;;;0.10;0.10;;;;;;;;;;5096629;28;20294;-77
2023/07/05 13:45:45;;;;;;;0.00;0.00;;;;;;;;;;5081146;28;20263;-77
2023/07/05 13:48:12;;;;;;;0.00;0.00;;;;;;;;;;5097100;28;20474;-77
2023/07/05 13:50:38;;;;;;;0.00;0.00;;;;;;;;;;5080094;28;20566;-78
2023/07/05 13:53:06;;;;;;;0.10;0.10;;;;;;;;;;5098228;28;20270;-78
2023/07/05 13:55:33;;;;;;;0.00;0.00;;;;;;;;;;5079270;28;20262;-77
2023/07/05 13:58:01;;;;;;;0.00;0.00;;;;;;;;;;5099039;28;20203;-78
2023/07/05 14:00:29;;;;;;;0.00;0.00;;;;;;;;;;5078683;28;20247;-77
2023/07/05 14:02:57;;;;;;;0.22;0.22;;;;;;;;;;5099130;28;20279;-77
2023/07/05 14:05:26;;;;;;;0.00;0.00;;;;;;;;;;5077524;28;20211;-77
2023/07/05 14:07:53;;;;;;;0.28;0.28;;;;;;;;;;5099264;28;20204;-77
2023/07/05 14:10:19;;;;;;;3.00;2.85;;;;;;;;;;5077444;28;20530;-77
2023/07/05 14:12:45;;;;;;;0.10;0.10;;;;;;;;;;5100307;28;20203;-78
2023/07/05 14:15:22;;;;;;;0.00;0.00;;;;;;;;;;5076334;28;20565;-77
2023/07/05 14:17:49;;;;;;;0.00;0.00;;;;;;;;;;5099766;28;20245;-77
2023/07/05 14:20:15;;;;;;;0.10;0.10;;;;;;;;;;5076711;28;20231;-77
2023/07/05 14:22:41;;;;;;;0.47;0.20;;;;;;;;;;5100661;28;20410;-77
2023/07/05 14:25:13;;;;;;;0.00;0.00;;;;;;;;;;5080886;28;20450;-77
2023/07/05 14:27:39;;;;;;;0.00;0.00;;;;;;;;;;5100883;28;20215;-77
2023/07/05 14:30:06;;;;;;;0.00;0.00;;;;;;;;;;5085747;28;20226;-77
2023/07/05 14:32:34;;;;;;;0.00;0.00;;;;;;;;;;5090994;28;20239;-77
2023/07/05 14:35:01;;;;;;;0.35;0.35;;;;;;;;;;5085562;28;20227;-77
2023/07/05 14:37:27;;;;;;;0.00;0.00;;;;;;;;;;5090963;28;20257;-77
2023/07/05 14:39:54;;;;;;;0.00;0.00;;;;;;;;;;5085884;28;20200;-77
2023/07/05 14:42:20;;;;;;;0.00;0.00;;;;;;;;;;5091088;28;20238;-78
2023/07/05 14:44:46;;;;;;;0.00;0.00;;;;;;;;;;5085683;28;20265;-77
2023/07/05 14:47:13;;;;;;;0.00;0.00;;;;;;;;;;5090953;28;20238;-77
2023/07/05 14:49:40;;;;;;;0.00;0.00;;;;;;;;;;5084793;28;20467;-77